Time;durP1;ratioP1;P1;durP2;ratioP2;P2;SDS_P1;SDS_P2;PMS_P1;PMS_P2;Temp;Humidity;BMP_temperature;BMP_pressure;BME280_temperature;BME280_humidity;BME280_pressure;Samples;Min_cycle;Max_cycle;Signal;HPM_P1;HPM_P2
2024/02/10 00:02:06;;;;;;;11.48;6.32;;;;;;;9.03;42.57;92987.44;4991884;28;20164;-93
2024/02/10 00:04:32;;;;;;;10.18;6.68;;;;;;;8.74;42.26;92931.81;4997307;28;20033;-94
2024/02/10 00:07:01;;;;;;;13.75;7.53;;;;;;;8.89;42.13;92947.13;4996333;28;20045;-93
2024/02/10 00:09:26;;;;;;;10.77;6.05;;;;;;;9.58;42.63;93072.16;4994025;28;20096;-94
2024/02/10 00:11:52;;;;;;;9.70;6.25;;;;;;;8.59;42.98;92920.66;4988584;28;20042;-93
2024/02/10 00:14:21;;;;;;;13.93;8.38;;;;;;;9.31;42.94;93028.31;4988931;28;20072;-92
2024/02/10 00:16:46;;;;;;;16.98;8.35;;;;;;;9.60;42.93;93085.06;4993477;28;20469;-93
2024/02/10 00:19:12;;;;;;;10.93;6.93;;;;;;;9.53;43.10;93063.59;4986373;28;20038;-93
2024/02/10 00:21:38;;;;;;;14.38;6.65;;;;;;;8.72;43.37;92992.31;4984759;28;20038;-93
2024/02/10 00:24:07;;;;;;;15.60;6.03;;;;;;;8.90;43.02;93007.78;4987058;28;20538;-93
2024/02/10 00:26:33;;;;;;;13.48;6.20;;;;;;;9.03;42.72;92998.84;4984865;28;20128;-94
2024/02/10 00:28:58;;;;;;;11.75;7.65;;;;;;;9.02;42.97;93009.75;4985555;28;20517;-93
2024/02/10 00:31:25;;;;;;;16.65;9.18;;;;;;;8.89;42.66;92976.31;4984894;28;20572;-92
2024/02/10 00:33:51;;;;;;;17.17;9.43;;;;;;;8.97;42.82;92981.53;4984928;28;20095;-93
2024/02/10 00:36:18;;;;;;;14.93;8.15;;;;;;;9.13;42.59;93008.31;4986557;28;20049;-93
2024/02/10 00:38:44;;;;;;;14.38;7.82;;;;;;;8.81;42.75;92974.47;4988986;28;20525;-94
2024/02/10 00:41:13;;;;;;;12.00;7.63;;;;;;;9.24;42.87;93043.94;4992574;28;20152;-93
2024/02/10 00:43:43;;;;;;;14.50;8.00;;;;;;;8.81;42.76;92969.16;4988318;28;20026;-93
2024/02/10 00:46:15;;;;;;;9.82;6.57;;;;;;;9.54;42.81;93083.72;4992652;28;20382;-93
2024/02/10 00:48:42;;;;;;;15.30;6.95;;;;;;;8.78;43.41;92981.22;4966151;28;20111;-93
2024/02/10 00:51:09;;;;;;;11.57;6.93;;;;;;;9.08;43.07;93019.09;4989709;28;20624;-93
2024/02/10 00:53:41;;;;;;;14.02;6.30;;;;;;;8.99;43.38;93018.38;4987637;28;20065;-93
2024/02/10 00:56:10;;;;;;;10.75;6.43;;;;;;;8.64;43.08;92956.03;4995821;28;20026;-93
2024/02/10 00:58:44;;;;;;;13.35;6.28;;;;;;;8.60;43.23;92942.66;4995074;28;20030;-94
2024/02/10 01:01:14;;;;;;;12.25;5.88;;;;;;;8.83;42.95;92988.19;4993908;28;20038;-94
2024/02/10 01:03:44;;;;;;;13.68;7.47;;;;;;;8.79;43.25;92980.13;4988155;28;20229;-94
2024/02/10 01:06:12;;;;;;;12.40;6.07;;;;;;;8.56;43.08;92947.78;4985286;28;20076;-93
2024/02/10 01:08:46;;;;;;;11.40;5.43;;;;;;;8.65;43.32;92981.44;4996305;28;20129;-92
2024/02/10 01:11:23;;;;;;;10.13;6.55;;;;;;;7.95;44.14;92919.28;4986239;28;20249;-93
2024/02/10 01:13:49;;;;;;;13.38;7.50;;;;;;;8.35;44.54;92999.19;4991602;28;20042;-94
2024/02/10 01:16:18;;;;;;;9.95;6.32;;;;;;;7.98;44.13;92916.00;5001402;28;20034;-94
2024/02/10 01:18:50;;;;;;;11.77;7.32;;;;;;;8.49;44.50;93010.38;5003940;28;20030;-93
2024/02/10 01:21:21;;;;;;;9.50;6.85;;;;;;;8.86;44.19;93051.97;4993126;28;20077;-93
2024/02/10 01:23:49;;;;;;;9.25;6.15;;;;;;;7.85;44.21;92901.88;4975457;28;20038;-93
2024/02/10 01:26:17;;;;;;;9.55;6.15;;;;;;;8.02;44.24;92920.31;4995439;28;20118;-94
2024/02/10 01:28:44;;;;;;;13.63;7.18;;;;;;;8.24;44.71;92982.88;4986335;28;20532;-93
2024/02/10 01:31:12;;;;;;;11.77;7.03;;;;;;;8.32;44.83;93000.59;4992535;28;20107;-93
2024/02/10 01:33:38;;;;;;;10.88;7.68;;;;;;;8.06;45.34;92997.28;4985586;28;20030;-94
2024/02/10 01:36:04;;;;;;;10.20;7.20;;;;;;;7.47;45.08;92896.53;4987365;28;20520;-93
2024/02/10 01:38:37;;;;;;;12.02;7.28;;;;;;;7.11;46.73;92943.72;4982228;28;20038;-93
2024/02/10 01:41:04;;;;;;;9.70;7.22;;;;;;;6.34;48.59;92960.25;4994047;28;20759;-94
2024/02/10 01:43:29;;;;;;;14.73;8.75;;;;;;;6.43;47.92;92906.38;4995852;28;20022;-93
2024/02/10 01:45:55;;;;;;;13.20;8.63;;;;;;;7.00;47.49;92955.66;4986640;28;20457;-92
2024/02/10 01:48:22;;;;;;;17.05;8.38;;;;;;;7.59;46.79;93046.69;4986462;28;20397;-93
2024/02/10 01:50:48;;;;;;;16.60;7.70;;;;;;;7.08;47.72;93021.78;4983471;28;20063;-93
2024/02/10 01:53:14;;;;;;;11.82;8.25;;;;;;;5.93;50.18;92977.16;4985134;28;20103;-92
2024/02/10 01:55:41;;;;;;;11.52;7.95;;;;;;;6.52;49.05;92992.75;4988089;28;21022;-93
2024/02/10 01:58:10;;;;;;;17.35;8.52;;;;;;;6.85;49.52;93079.28;4964231;28;20485;-93
2024/02/10 02:00:37;;;;;;;12.77;9.30;;;;;;;6.20;48.93;92922.63;4986726;28;20053;-94
2024/02/10 02:03:03;;;;;;;13.68;8.77;;;;;;;5.92;49.41;92896.41;4981156;28;20220;-93
2024/02/10 02:05:32;;;;;;;18.90;8.35;;;;;;;7.07;48.53;92995.66;4985713;28;20509;-93
2024/02/10 02:08:08;;;;;;;17.65;8.73;;;;;;;6.42;48.66;92896.09;4994511;28;20177;-93
2024/02/10 02:10:37;;;;;;;16.23;9.32;;;;;;;6.29;48.01;92852.91;4989684;28;20138;-94
2024/02/10 02:13:05;;;;;;;15.77;8.10;;;;;;;7.33;48.24;93043.28;4992300;28;20057;-93
2024/02/10 02:15:31;;;;;;;17.27;9.13;;;;;;;7.08;48.83;93037.66;4988737;28;20076;-93
2024/02/10 02:17:57;;;;;;;18.17;8.93;;;;;;;6.90;48.66;92977.16;4986848;28;20042;-93
2024/02/10 02:20:30;;;;;;;14.73;8.77;;;;;;;6.80;48.65;92963.13;4984135;28;20042;-92
2024/02/10 02:22:56;;;;;;;20.23;9.02;;;;;;;6.84;48.86;92969.38;4991107;28;20060;-93
2024/02/10 02:25:22;;;;;;;13.95;9.05;;;;;;;6.63;47.42;92873.28;4989077;28;20589;-93
2024/02/10 02:27:48;;;;;;;20.85;12.75;;;;;;;7.00;47.40;92913.38;4992748;28;20053;-93
2024/02/10 02:30:15;;;;;;;28.17;13.57;;;;;;;7.75;47.18;93023.19;4986349;28;20053;-94
2024/02/10 02:32:41;;;;;;;20.30;11.13;;;;;;;7.00;47.10;92905.44;4986285;28;20084;-95
2024/02/10 02:35:09;;;;;;;18.33;11.73;;;;;;;7.63;47.27;93021.94;4989340;28;20405;-94
2024/02/10 02:37:42;;;;;;;19.65;11.20;;;;;;;7.37;46.72;92955.06;4988641;28;20021;-93
2024/02/10 02:40:09;;;;;;;15.77;10.32;;;;;;;6.69;47.09;92866.78;4992364;28;20143;-93
2024/02/10 02:42:35;;;;;;;22.25;11.27;;;;;;;6.56;47.96;92919.72;4989348;28;20054;-94
2024/02/10 02:45:10;;;;;;;18.05;10.73;;;;;;;6.58;47.74;92901.72;5002426;28;20089;-94
2024/02/10 02:47:37;;;;;;;18.08;9.68;;;;;;;7.16;47.19;92946.19;4985261;28;20046;-93
2024/02/10 02:50:14;;;;;;;16.30;9.40;;;;;;;6.97;46.64;92884.94;4988195;28;20057;-94
2024/02/10 02:52:41;;;;;;;22.90;11.35;;;;;;;7.17;47.10;92974.19;5002644;28;20575;-93
2024/02/10 02:55:11;;;;;;;21.25;12.18;;;;;;;6.85;49.02;93033.56;4989107;28;20042;-93
2024/02/10 02:57:39;;;;;;;18.38;10.57;;;;;;;6.84;48.54;93006.38;4985410;28;20042;-93
2024/02/10 03:00:05;;;;;;;18.50;11.32;;;;;;;6.57;47.82;92911.50;4987089;28;20421;-94
2024/02/10 03:02:41;;;;;;;18.58;11.30;;;;;;;6.63;48.25;92947.25;4990761;28;20606;-93
2024/02/10 03:05:10;;;;;;;17.40;10.40;;;;;;;7.04;47.59;92957.41;5004019;28;20050;-93
2024/02/10 03:07:45;;;;;;;17.88;9.27;;;;;;;6.88;46.89;92902.66;4984381;28;20049;-93
2024/02/10 03:10:15;;;;;;;14.82;8.57;;;;;;;7.01;46.96;92944.00;4996987;28;20035;-93
2024/02/10 03:12:48;;;;;;;19.08;9.00;;;;;;;6.94;47.03;92915.44;4995299;28;20033;-94
2024/02/10 03:15:15;;;;;;;15.55;9.40;;;;;;;7.03;46.99;92923.34;4999900;28;20272;-93
2024/02/10 03:17:46;;;;;;;19.45;9.15;;;;;;;6.80;48.14;92949.91;4994155;28;20042;-94
2024/02/10 03:20:12;;;;;;;14.68;8.45;;;;;;;7.57;47.29;93019.78;4991334;28;20056;-94
2024/02/10 03:22:39;;;;;;;11.65;8.32;;;;;;;6.58;47.68;92868.16;4991423;28;20038;-93
2024/02/10 03:25:05;;;;;;;17.70;8.75;;;;;;;6.95;47.43;92879.94;4990433;28;20060;-93
2024/02/10 03:27:34;;;;;;;14.80;8.88;;;;;;;6.25;48.01;92872.31;4993749;28;20018;-93
2024/02/10 03:30:00;;;;;;;19.02;9.25;;;;;;;7.24;47.60;92982.41;4983957;28;20045;-94
2024/02/10 03:32:27;;;;;;;15.18;8.68;;;;;;;5.77;48.99;92878.38;4990433;28;20054;-94
2024/02/10 03:34:55;;;;;;;15.25;9.35;;;;;;;6.45;49.32;92981.88;4990281;28;20042;-94
2024/02/10 03:37:22;;;;;;;13.30;8.52;;;;;;;7.44;48.41;93045.28;4990981;28;20045;-92
2024/02/10 03:39:47;;;;;;;15.10;9.73;;;;;;;6.63;48.38;92962.34;4993003;28;20022;-93
2024/02/10 03:42:13;;;;;;;17.17;9.60;;;;;;;6.07;50.19;93006.09;4990916;28;20041;-93
2024/02/10 03:44:41;;;;;;;18.35;9.70;;;;;;;5.10;52.02;92964.69;5005277;28;20715;-92
2024/02/10 03:47:09;;;;;;;18.17;9.88;;;;;;;5.96;51.23;93021.44;4995297;28;20042;-93
2024/02/10 03:49:35;;;;;;;16.55;9.10;;;;;;;5.91;49.69;92931.81;4993793;28;20153;-94
2024/02/10 03:52:01;;;;;;;15.05;8.77;;;;;;;6.15;49.47;92942.00;4980337;28;20105;-92
2024/02/10 03:54:26;;;;;;;17.88;9.93;;;;;;;6.86;48.69;92998.91;4999730;28;20030;-93
2024/02/10 03:56:52;;;;;;;14.82;9.07;;;;;;;6.93;47.77;92965.94;4989785;28;20050;-94
2024/02/10 03:59:23;;;;;;;15.57;9.15;;;;;;;6.52;48.55;92990.91;4995132;28;20037;-94
2024/02/10 04:01:48;;;;;;;11.20;8.00;;;;;;;6.96;48.24;92997.03;4997826;28;20057;-94
2024/02/10 04:04:14;;;;;;;13.98;8.93;;;;;;;6.31;48.73;92927.31;4996473;28;21076;-94
2024/02/10 04:06:39;;;;;;;18.63;9.48;;;;;;;7.49;47.58;93045.13;4993189;28;20037;-93
2024/02/10 04:09:06;;;;;;;16.75;9.95;;;;;;;7.28;47.89;93015.13;4991489;28;20045;-93
2024/02/10 04:11:32;;;;;;;16.33;9.00;;;;;;;7.24;47.64;92971.84;4998146;28;20125;-94
2024/02/10 04:13:58;;;;;;;14.32;9.35;;;;;;;6.71;48.65;92966.84;4988650;28;20109;-93
2024/02/10 04:16:27;;;;;;;16.17;9.25;;;;;;;7.45;48.94;93048.72;4996730;28;20046;-94
2024/02/10 04:18:59;;;;;;;18.23;9.73;;;;;;;6.83;47.97;92907.03;4992803;28;20117;-93
2024/02/10 04:21:25;;;;;;;12.82;8.88;;;;;;;7.88;47.47;93046.06;4989098;28;20049;-94
2024/02/10 04:23:51;;;;;;;16.15;9.10;;;;;;;6.59;47.98;92900.63;4996587;28;20034;-93
2024/02/10 04:26:18;;;;;;;17.15;9.98;;;;;;;7.18;47.87;92941.38;4992265;28;20502;-93
2024/02/10 04:28:48;;;;;;;17.92;9.77;;;;;;;6.50;48.03;92890.06;4992095;28;20092;-93
2024/02/10 04:31:13;;;;;;;22.27;9.85;;;;;;;6.82;48.33;92936.41;4989499;28;20113;-92
2024/02/10 04:33:46;;;;;;;17.55;9.40;;;;;;;7.11;48.45;92962.22;4995571;28;20124;-93
2024/02/10 04:36:12;;;;;;;12.75;8.93;;;;;;;6.62;47.72;92879.66;5000653;28;20563;-94
2024/02/10 04:38:38;;;;;;;16.50;8.82;;;;;;;6.56;48.37;92875.59;4993481;28;20536;-93
2024/02/10 04:41:16;;;;;;;16.85;8.90;;;;;;;7.43;47.70;92926.56;4994847;28;20405;-94
2024/02/10 04:43:41;;;;;;;14.77;9.23;;;;;;;7.04;49.25;93012.16;4996986;28;20038;-93
2024/02/10 04:46:08;;;;;;;18.83;8.95;;;;;;;6.40;48.88;92875.31;4990596;28;20026;-95
2024/02/10 04:48:34;;;;;;;14.55;8.95;;;;;;;5.86;50.06;92896.88;4993188;28;20049;-94
2024/02/10 04:50:59;;;;;;;16.38;9.57;;;;;;;5.68;51.79;92911.06;4988226;28;20050;-92
2024/02/10 04:53:25;;;;;;;18.23;9.50;;;;;;;5.51;51.82;92880.13;4990619;28;20548;-94
2024/02/10 04:55:51;;;;;;;21.38;9.82;;;;;;;6.44;50.87;92959.97;4991842;28;20058;-93
2024/02/10 04:58:21;;;;;;;16.33;9.18;;;;;;;6.39;49.61;92894.09;4996765;28;20033;-94
2024/02/10 05:00:47;;;;;;;18.35;9.65;;;;;;;7.15;48.82;92963.91;4990229;28;20034;-93
2024/02/10 05:03:12;;;;;;;20.67;10.63;;;;;;;6.54;48.93;92869.88;4992765;28;20788;-93
2024/02/10 05:05:40;;;;;;;18.40;9.23;;;;;;;7.26;48.20;92962.53;4993482;28;20045;-93
2024/02/10 05:08:12;;;;;;;20.10;9.60;;;;;;;7.69;47.69;92996.84;4989884;28;20042;-93
2024/02/10 05:10:42;;;;;;;21.80;9.43;;;;;;;6.89;47.77;92902.38;4997855;28;20062;-93
2024/02/10 05:13:08;;;;;;;12.95;8.88;;;;;;;7.00;47.15;92886.94;4999758;28;20030;-93
2024/02/10 05:15:33;;;;;;;17.67;9.63;;;;;;;7.29;46.98;92932.78;4994880;28;20088;-94
2024/02/10 05:18:04;;;;;;;18.35;10.30;;;;;;;7.04;47.08;92904.53;4992804;28;20124;-93
2024/02/10 05:20:30;;;;;;;16.45;10.52;;;;;;;7.68;46.82;92989.22;5000033;28;20050;-94
2024/02/10 05:23:00;;;;;;;18.88;11.23;;;;;;;7.92;46.98;93049.66;4991627;28;20095;-94
2024/02/10 05:25:34;;;;;;;19.90;9.32;;;;;;;7.30;47.85;92997.06;4992969;28;20033;-93
2024/02/10 05:28:01;;;;;;;17.77;9.15;;;;;;;7.29;47.07;92958.47;4999926;28;20494;-92
2024/02/10 05:30:29;;;;;;;14.55;8.82;;;;;;;6.77;47.08;92900.34;4993714;28;20042;-93
2024/02/10 05:33:04;;;;;;;17.27;9.52;;;;;;;6.66;47.82;92893.78;4993772;28;20073;-94
2024/02/10 05:35:31;;;;;;;14.57;9.48;;;;;;;7.71;47.47;93054.78;4993232;28;20136;-94
2024/02/10 05:38:02;;;;;;;18.55;8.95;;;;;;;7.38;47.58;93004.22;4994870;28;20027;-94
2024/02/10 05:40:32;;;;;;;17.63;9.45;;;;;;;6.85;47.35;92933.91;4992279;28;20038;-94
2024/02/10 05:42:58;;;;;;;14.98;9.27;;;;;;;7.50;47.45;93028.16;5001245;28;20037;-93
2024/02/10 05:45:25;;;;;;;15.48;8.60;;;;;;;7.28;47.11;92986.81;5001246;28;20053;-93
2024/02/10 05:47:51;;;;;;;16.92;8.82;;;;;;;7.94;46.83;93081.88;4999664;28;20034;-93
2024/02/10 05:50:22;;;;;;;15.05;9.98;;;;;;;7.46;47.08;93000.78;4992293;28;20042;-93
2024/02/10 05:52:59;;;;;;;17.23;9.68;;;;;;;7.25;47.20;92987.41;4999380;28;20038;-93
2024/02/10 05:55:27;;;;;;;16.25;9.77;;;;;;;7.24;47.07;92980.56;5000262;28;20081;-92
2024/02/10 05:57:58;;;;;;;17.13;11.02;;;;;;;7.81;47.48;93066.94;5001054;28;20489;-93
2024/02/10 06:00:25;;;;;;;15.20;9.82;;;;;;;7.43;47.48;92996.13;4996687;28;20092;-93
2024/02/10 06:02:51;;;;;;;20.23;10.25;;;;;;;7.61;47.10;93021.47;5001848;28;20038;-94
2024/02/10 06:05:18;;;;;;;18.88;11.57;;;;;;;6.72;47.83;92931.41;4989035;28;20042;-92
2024/02/10 06:07:45;;;;;;;14.90;10.10;;;;;;;6.43;50.11;93008.59;4997403;28;20042;-94
2024/02/10 06:10:15;;;;;;;19.27;10.57;;;;;;;6.88;48.91;93032.19;5009468;28;20048;-94
2024/02/10 06:12:52;;;;;;;23.98;11.13;;;;;;;5.85;51.15;92985.81;4993649;28;20029;-91
2024/02/10 06:15:25;;;;;;;19.13;11.20;;;;;;;6.33;49.93;92985.09;4979856;28;20077;-92
2024/02/10 06:17:54;;;;;;;15.18;9.25;;;;;;;6.28;50.67;93003.72;4994578;28;20035;-92
2024/02/10 06:20:22;;;;;;;26.48;12.73;;;;;;;6.43;50.38;92990.09;4992787;28;20037;-92
2024/02/10 06:22:50;;;;;;;13.63;9.25;;;;;;;6.08;49.76;92911.84;5000370;28;20034;-93
2024/02/10 06:25:25;;;;;;;21.60;9.60;;;;;;;7.04;49.10;93028.00;4998999;28;20068;-92
2024/02/10 06:28:04;;;;;;;18.35;8.80;;;;;;;6.79;49.33;92971.38;4993097;28;20040;-93
2024/02/10 06:30:34;;;;;;;23.52;10.32;;;;;;;7.11;48.60;92989.44;4997400;28;20050;-92
2024/02/10 06:33:00;;;;;;;21.98;9.48;;;;;;;7.50;48.15;93019.44;4969504;28;20134;-93
2024/02/10 06:35:26;;;;;;;17.50;9.27;;;;;;;7.47;48.13;93005.00;4997352;28;20363;-92
2024/02/10 06:37:54;;;;;;;15.05;9.18;;;;;;;7.70;47.58;93026.75;4998259;28;20034;-92
2024/02/10 06:40:19;;;;;;;12.77;8.57;;;;;;;7.21;47.53;92927.53;4993920;28;20162;-93
2024/02/10 06:42:50;;;;;;;16.35;9.85;;;;;;;7.45;47.23;92946.31;4999745;28;20018;-92
2024/02/10 06:45:18;;;;;;;19.58;14.00;;;;;;;7.86;47.85;93037.66;4990550;28;20034;-93
2024/02/10 06:47:51;;;;;;;17.65;9.48;;;;;;;7.15;47.98;92968.44;5000772;28;20644;-93
2024/02/10 06:50:36;;;;;;;18.52;10.93;;;;;;;7.20;47.68;92960.34;4995619;28;20431;-94
2024/02/10 06:53:06;;;;;;;23.45;12.68;;;;;;;8.25;47.77;93098.34;5008606;28;20198;-93
2024/02/10 06:55:33;;;;;;;19.35;10.65;;;;;;;7.96;47.88;93071.75;4993205;28;20076;-93
2024/02/10 06:58:02;;;;;;;17.52;10.13;;;;;;;7.78;48.57;93097.44;5001150;28;20030;-93
2024/02/10 07:00:30;;;;;;;20.88;10.27;;;;;;;6.52;48.91;92950.50;5011665;28;20061;-93
2024/02/10 07:02:56;;;;;;;15.38;9.38;;;;;;;6.72;49.80;92966.53;4997154;28;20039;-92
2024/02/10 07:05:23;;;;;;;17.25;11.60;;;;;;;7.31;48.64;93009.19;4991891;28;20049;-92
2024/02/10 07:07:49;;;;;;;24.58;13.20;;;;;;;6.18;50.13;92953.81;4994184;28;21000;-93
2024/02/10 07:10:16;;;;;;;24.35;12.25;;;;;;;7.06;49.83;93015.25;5002074;28;20034;-91
2024/02/10 07:12:49;;;;;;;22.63;11.93;;;;;;;7.63;48.86;93052.94;5002669;28;20022;-95
2024/02/10 07:15:18;;;;;;;25.98;12.38;;;;;;;7.27;49.11;93037.34;5007316;28;20516;-93
2024/02/10 07:17:46;;;;;;;21.05;11.93;;;;;;;6.94;50.40;93039.66;4998416;28;20116;-93
2024/02/10 07:20:20;;;;;;;31.05;11.93;;;;;;;5.87;51.83;92945.94;4990217;28;20052;-94
2024/02/10 07:22:49;;;;;;;23.70;11.35;;;;;;;6.31;51.60;92950.31;4998668;28;20038;-95
2024/02/10 07:25:18;;;;;;;22.95;11.45;;;;;;;5.79;52.33;92950.06;4994611;28;20022;-94
2024/02/10 07:27:48;;;;;;;24.17;12.10;;;;;;;6.16;52.09;93011.44;5001446;28;20036;-95
2024/02/10 07:30:15;;;;;;;19.95;10.63;;;;;;;6.91;51.49;93073.84;4999830;28;20050;-94
2024/02/10 07:32:49;;;;;;;20.52;10.35;;;;;;;6.29;51.48;93036.97;4996474;28;20140;-92
2024/02/10 07:35:21;;;;;;;16.37;10.40;;;;;;;6.37;51.87;93046.78;5003273;28;20038;-95
2024/02/10 07:37:48;;;;;;;22.50;11.75;;;;;;;5.79;51.72;92942.16;5003846;28;20267;-94
2024/02/10 07:40:15;;;;;;;20.38;11.63;;;;;;;5.43;52.57;92942.28;4997363;28;20032;-95
2024/02/10 07:42:40;;;;;;;22.58;11.48;;;;;;;5.62;52.83;92994.06;5001513;28;20116;-93
2024/02/10 07:45:07;;;;;;;20.88;10.98;;;;;;;6.13;52.48;93017.28;4994695;28;20472;-94
2024/02/10 07:47:35;;;;;;;24.63;11.73;;;;;;;6.38;51.61;92982.31;4990170;28;20038;-95
2024/02/10 07:50:03;;;;;;;21.67;11.98;;;;;;;6.49;50.54;92951.13;5000967;28;20062;-95
2024/02/10 07:52:30;;;;;;;24.98;12.48;;;;;;;6.57;49.98;92922.06;4996748;28;20056;-95
2024/02/10 07:54:58;;;;;;;22.58;11.43;;;;;;;7.30;49.36;92992.53;4996843;28;20034;-91
2024/02/10 08:25:49;;;;;;;;;;;;;;;;;;;;;
2024/02/10 08:29:13;;;;;;;;;;;;;;;;;;;;;
2024/02/10 08:32:59;;;;;;;18.95;11.25;;;;;;;9.04;46.36;93095.09;4919555;28;20058;-93
2024/02/10 08:39:54;;;;;;;19.23;11.27;;;;;;;8.25;48.12;92947.34;4904504;29;20184;-92
2024/02/10 08:43:09;;;;;;;23.20;12.98;;;;;;;8.45;47.23;93086.28;4881921;29;20606;-92
2024/02/10 08:45:57;;;;;;;22.70;13.23;;;;;;;7.34;48.11;92950.38;4881221;29;20063;-92
2024/02/10 08:52:57;;;;;;;25.65;14.55;;;;;;;7.97;49.01;93123.63;4826003;29;20060;-92
2024/02/10 08:55:51;;;;;;;20.95;12.90;;;;;;;7.88;48.50;93113.03;4827655;29;20044;-91
2024/02/10 09:10:16;;;;;;;;;;;;;;;;;;;;;
2024/02/10 09:13:13;;;;;;;;;;;;;;;;;;;;;
2024/02/10 09:20:25;;;;;;;;;;;;;;;;;;;;;
2024/02/10 09:37:56;;;;;;;26.90;11.10;;;;;;;7.57;47.36;92938.53;4795510;29;20045;-93
2024/02/10 09:41:03;;;;;;;32.00;11.75;;;;;;;8.77;46.64;93077.75;4800197;29;20112;-94
2024/02/10 10:27:38;;;;;;;8.15;4.25;;;;;;;10.04;35.23;92909.06;4942980;23;20068;-90
2024/02/10 10:30:10;;;;;;;14.73;6.57;;;;;;;10.44;36.57;92906.56;5057683;28;20051;-90
2024/02/10 10:32:39;;;;;;;21.65;5.97;;;;;;;10.68;35.92;92950.97;5032131;28;20047;-92
2024/02/10 10:35:27;;;;;;;5.40;1.60;;;;;;;11.28;32.24;92949.31;5035009;28;20511;-91
2024/02/10 10:37:59;;;;;;;6.15;1.83;;;;;;;11.34;33.01;92937.31;5005500;28;20500;-90
2024/02/10 10:40:30;;;;;;;11.77;3.00;;;;;;;12.00;31.54;93017.50;5007224;28;20041;-91
2024/02/10 10:43:17;;;;;;;9.80;3.40;;;;;;;11.26;31.31;92871.66;4997684;28;20040;-90
2024/02/10 10:45:52;;;;;;;8.57;1.50;;;;;;;11.35;31.30;92858.97;4973635;28;20453;-91
2024/02/10 10:48:54;;;;;;;;;;;;;;;;;;;;;
2024/02/10 10:51:46;;;;;;;4.75;1.70;;;;;;;12.18;30.99;92959.31;4998131;28;19933;-91
2024/02/10 10:54:15;;;;;;;5.18;1.38;;;;;;;11.86;31.25;92938.00;5000952;28;20032;-91
2024/02/10 10:56:41;;;;;;;5.32;1.73;;;;;;;11.72;31.01;92903.00;5009103;28;20072;-91
2024/02/10 10:59:09;;;;;;;8.48;1.58;;;;;;;12.60;31.73;93011.09;5005017;28;20125;-89
2024/02/10 11:01:39;;;;;;;5.55;2.00;;;;;;;11.89;30.23;92878.69;5003068;28;20041;-90
2024/02/10 11:04:34;;;;;;;5.10;2.58;;;;;;;12.22;30.18;92937.00;4997315;28;20032;-91
2024/02/10 11:07:17;;;;;;;8.83;1.60;;;;;;;11.79;29.39;92871.19;4971214;28;20118;-92
2024/02/10 11:09:54;;;;;;;3.95;1.90;;;;;;;12.63;29.58;93018.38;5009716;28;20698;-90
2024/02/10 11:12:19;;;;;;;8.30;1.50;;;;;;;12.42;30.14;92964.50;5047476;28;20040;-90
2024/02/10 11:14:56;;;;;;;9.63;4.07;;;;;;;11.95;29.92;92881.88;5043842;28;20495;-90
2024/02/10 11:17:22;;;;;;;3.30;1.60;;;;;;;12.62;30.76;92998.16;5042487;28;20047;-91
2024/02/10 11:19:58;;;;;;;10.68;5.28;;;;;;;12.30;30.98;92935.28;5040075;28;20040;-90
2024/02/10 11:22:30;;;;;;;5.60;1.80;;;;;;;12.97;30.50;93002.78;5036407;28;20069;-89
2024/02/10 11:25:00;;;;;;;13.93;3.90;;;;;;;12.67;29.59;92925.88;5031674;28;20085;-90
2024/02/10 11:27:37;;;;;;;5.53;1.90;;;;;;;12.45;29.48;92879.25;5039045;28;20054;-90
2024/02/10 11:30:04;;;;;;;9.60;1.70;;;;;;;12.44;29.41;92860.94;5048662;28;20036;-90
2024/02/10 11:32:32;;;;;;;5.60;1.52;;;;;;;13.15;29.53;92942.56;5026497;28;20111;-91
2024/02/10 11:34:59;;;;;;;9.65;4.97;;;;;;;13.09;28.87;92933.28;5040768;28;20127;-90
2024/02/10 11:37:26;;;;;;;9.07;2.65;;;;;;;12.67;28.58;92895.75;5049398;28;20480;-90
2024/02/10 11:40:01;;;;;;;3.78;1.50;;;;;;;13.46;28.63;93011.88;5047370;28;20024;-90
2024/02/10 11:42:30;;;;;;;;;;;;;;;13.30;28.59;93016.47;5040627;28;20045;-90
2024/02/10 11:45:12;;;;;;;9.27;3.15;;;;;;;12.55;29.26;92930.53;5026772;28;19927;-90
2024/02/10 11:47:38;;;;;;;3.90;2.20;;;;;;;12.88;29.38;93013.66;5014930;28;20051;-90
2024/02/10 11:50:06;;;;;;;7.60;2.22;;;;;;;12.50;29.04;92880.88;5031700;28;20040;-90
2024/02/10 11:53:03;;;;;;;8.10;1.98;;;;;;;12.71;28.65;92918.72;5049654;28;20621;-90
2024/02/10 11:56:18;;;;;;;;;;;;;;;;;;;;;
2024/02/10 11:59:38;;;;;;;;;;;;;;;;;;;;;
2024/02/10 12:05:30;;;;;;;9.20;1.60;;;;;;;13.56;28.85;93015.91;4953031;28;20175;-92
2024/02/10 12:08:22;;;;;;;5.32;2.88;;;;;;;13.67;29.73;93007.00;4971256;28;20063;-89
2024/02/10 12:10:51;;;;;;;7.68;2.00;;;;;;;12.61;28.89;92945.19;5014855;28;20083;-89
2024/02/10 12:13:19;;;;;;;7.00;1.75;;;;;;;12.49;28.87;92868.66;5038967;28;20043;-89
2024/02/10 12:15:45;;;;;;;7.25;2.35;;;;;;;12.45;29.53;92871.28;5049121;28;20032;-91
2024/02/10 12:18:14;;;;;;;8.73;1.85;;;;;;;12.64;29.24;92870.56;5041645;28;20508;-89
2024/02/10 12:20:41;;;;;;;6.80;1.67;;;;;;;12.58;28.04;92855.94;5045184;28;20040;-89
2024/02/10 12:23:07;;;;;;;9.20;1.90;;;;;;;12.58;29.05;92879.16;5059757;28;20040;-88
2024/02/10 12:25:33;;;;;;;4.28;1.67;;;;;;;12.64;28.68;92865.22;5035388;28;20718;-89
2024/02/10 12:27:59;;;;;;;4.55;1.70;;;;;;;13.73;29.50;92984.25;5021181;28;20082;-89
2024/02/10 12:30:28;;;;;;;6.10;1.60;;;;;;;13.28;29.17;92952.00;5043130;28;20144;-89
2024/02/10 12:32:54;;;;;;;8.68;2.67;;;;;;;12.62;29.73;92982.16;5032469;28;20040;-88
2024/02/10 12:35:51;;;;;;;11.35;2.17;;;;;;;12.47;29.52;92893.00;5020218;28;20040;-88
2024/02/10 12:38:27;;;;;;;6.28;2.08;;;;;;;12.29;29.88;92885.72;4998526;28;20048;-89
2024/02/10 12:41:19;;;;;;;8.45;2.53;;;;;;;12.04;29.09;92851.25;5028529;28;20056;-88
2024/02/10 12:43:45;;;;;;;13.15;3.25;;;;;;;12.85;29.02;92900.38;5043760;28;20067;-89
2024/02/10 12:46:11;;;;;;;11.77;2.65;;;;;;;12.76;28.34;92889.09;5036525;28;20036;-89
2024/02/10 12:48:37;;;;;;;8.10;2.95;;;;;;;12.80;28.76;92922.00;5042148;28;20377;-89
2024/02/10 12:51:03;;;;;;;8.07;1.70;;;;;;;12.38;30.14;92936.97;5039465;28;20075;-89
2024/02/10 12:53:33;;;;;;;6.43;1.90;;;;;;;12.22;29.61;92864.25;5041037;28;20036;-88
2024/02/10 12:56:02;;;;;;;10.57;2.47;;;;;;;11.96;29.40;92870.88;5037335;28;20037;-89
2024/02/10 12:58:33;;;;;;;10.95;2.72;;;;;;;12.59;29.61;92977.53;5043757;28;20063;-88
2024/02/10 13:01:15;;;;;;;8.25;2.50;;;;;;;11.85;29.57;92797.91;5054811;28;20031;-89
2024/02/10 13:03:51;;;;;;;7.32;2.65;;;;;;;12.05;31.18;92897.34;5014219;28;20037;-89
2024/02/10 13:06:47;;;;;;;7.05;2.05;;;;;;;11.11;30.84;92815.41;5042960;28;20089;-90
2024/02/10 13:09:12;;;;;;;8.10;2.70;;;;;;;11.82;30.30;92819.91;5048845;28;20044;-92
2024/02/10 13:15:42;;;;;;;5.40;2.20;;;;;;;12.17;30.47;92931.91;4905612;28;20047;-94
2024/02/10 13:18:16;;;;;;;5.95;2.40;;;;;;;11.86;30.64;92874.06;4913836;28;20130;-92
2024/02/10 13:23:38;;;;;;;8.07;2.00;;;;;;;11.88;30.03;92882.44;5005467;28;20048;-93
2024/02/10 13:26:06;;;;;;;7.20;2.00;;;;;;;12.50;32.12;92896.91;5043750;28;20045;-92
2024/02/10 13:32:04;;;;;;;5.95;1.90;;;;;;;12.32;29.65;92861.81;5008287;28;20044;-92
2024/02/10 13:34:31;;;;;;;4.80;1.83;;;;;;;12.01;29.69;92827.22;5072113;28;20036;-92
2024/02/10 14:01:10;;;;;;;9.98;2.25;;;;;;;12.16;29.63;92837.09;5041036;28;20024;-92
2024/02/10 14:04:01;;;;;;;7.00;1.95;;;;;;;12.03;29.14;92851.59;5044984;28;20029;-93
2024/02/10 14:06:32;;;;;;;;;;;;;;;12.38;29.06;92897.75;5049464;28;20040;-92
2024/02/10 14:09:01;;;;;;;11.98;2.25;;;;;;;11.90;29.06;92821.63;5036083;28;19919;-91
2024/02/10 14:11:32;;;;;;;15.23;2.67;;;;;;;11.20;29.69;92740.00;5052544;28;20135;-93
2024/02/10 14:14:06;;;;;;;11.80;4.32;;;;;;;11.76;30.21;92839.16;5047630;28;20534;-92
2024/02/10 14:19:48;;;;;;;8.23;2.45;;;;;;;12.36;30.02;92849.34;5033648;28;20032;-90
2024/02/10 14:22:19;;;;;;;5.72;2.53;;;;;;;12.38;29.25;92867.66;5043298;28;20063;-91
2024/02/10 14:24:48;;;;;;;15.73;3.03;;;;;;;11.61;29.23;92784.75;5044969;28;20505;-91
2024/02/10 14:27:29;;;;;;;15.57;3.15;;;;;;;12.27;28.71;92866.66;5047252;28;20087;-91
2024/02/10 14:29:56;;;;;;;11.38;2.33;;;;;;;12.53;28.13;92906.84;5049138;28;20036;-91
2024/02/10 14:32:32;;;;;;;8.60;1.98;;;;;;;12.02;28.20;92834.88;5043642;28;20047;-93
2024/02/10 14:35:08;;;;;;;10.05;2.40;;;;;;;12.66;28.46;92926.25;5043980;28;20044;-91